sensor_id;sensor_type;location;lat;lon;timestamp;P1;durP1;ratioP1;P2;durP2;ratioP2
65558;SDS011;52203;51.998;5.140;2022-07-19T00:00:14;6.45;;;3.38;;
65558;SDS011;52203;51.998;5.140;2022-07-19T00:02:42;9.57;;;3.92;;
65558;SDS011;52203;51.998;5.140;2022-07-19T00:05:08;6.90;;;4.47;;
65558;SDS011;52203;51.998;5.140;2022-07-19T00:07:35;8.68;;;5.05;;
65558;SDS011;52203;51.998;5.140;2022-07-19T00:10:01;7.18;;;4.80;;
65558;SDS011;52203;51.998;5.140;2022-07-19T00:12:29;6.72;;;4.78;;
65558;SDS011;52203;51.998;5.140;2022-07-19T00:14:55;5.45;;;3.33;;
65558;SDS011;52203;51.998;5.140;2022-07-19T00:17:20;7.25;;;5.13;;
65558;SDS011;52203;51.998;5.140;2022-07-19T00:19:46;11.98;;;5.32;;
65558;SDS011;52203;51.998;5.140;2022-07-19T00:22:11;8.98;;;5.20;;
65558;SDS011;52203;51.998;5.140;2022-07-19T00:24:37;8.02;;;5.32;;
65558;SDS011;52203;51.998;5.140;2022-07-19T00:27:02;8.50;;;5.35;;
65558;SDS011;52203;51.998;5.140;2022-07-19T00:29:28;9.15;;;5.10;;
65558;SDS011;52203;51.998;5.140;2022-07-19T00:31:53;8.05;;;5.10;;
65558;SDS011;52203;51.998;5.140;2022-07-19T00:34:19;9.63;;;5.13;;
65558;SDS011;52203;51.998;5.140;2022-07-19T00:36:44;9.27;;;5.25;;
65558;SDS011;52203;51.998;5.140;2022-07-19T00:39:10;5.43;;;3.97;;
65558;SDS011;52203;51.998;5.140;2022-07-19T00:41:42;9.98;;;5.85;;
65558;SDS011;52203;51.998;5.140;2022-07-19T00:44:08;10.00;;;5.97;;
65558;SDS011;52203;51.998;5.140;2022-07-19T00:46:35;9.45;;;6.10;;
65558;SDS011;52203;51.998;5.140;2022-07-19T00:49:01;7.85;;;6.05;;
65558;SDS011;52203;51.998;5.140;2022-07-19T00:51:28;8.10;;;5.70;;
65558;SDS011;52203;51.998;5.140;2022-07-19T00:53:54;10.25;;;6.10;;
65558;SDS011;52203;51.998;5.140;2022-07-19T00:56:22;9.32;;;5.75;;
65558;SDS011;52203;51.998;5.140;2022-07-19T00:58:50;13.32;;;5.80;;
65558;SDS011;52203;51.998;5.140;2022-07-19T01:01:15;11.02;;;6.28;;
65558;SDS011;52203;51.998;5.140;2022-07-19T01:03:43;7.53;;;4.85;;
65558;SDS011;52203;51.998;5.140;2022-07-19T01:06:09;9.98;;;5.70;;
65558;SDS011;52203;51.998;5.140;2022-07-19T01:08:35;9.48;;;5.90;;
65558;SDS011;52203;51.998;5.140;2022-07-19T01:11:02;8.55;;;5.53;;
65558;SDS011;52203;51.998;5.140;2022-07-19T01:13:29;8.07;;;5.72;;
65558;SDS011;52203;51.998;5.140;2022-07-19T01:15:54;10.25;;;5.35;;
65558;SDS011;52203;51.998;5.140;2022-07-19T01:18:20;9.10;;;5.82;;
65558;SDS011;52203;51.998;5.140;2022-07-19T01:20:46;9.02;;;5.72;;
65558;SDS011;52203;51.998;5.140;2022-07-19T01:23:11;8.73;;;6.18;;
65558;SDS011;52203;51.998;5.140;2022-07-19T01:25:37;7.30;;;4.90;;
65558;SDS011;52203;51.998;5.140;2022-07-19T01:28:03;8.05;;;5.82;;
65558;SDS011;52203;51.998;5.140;2022-07-19T01:30:30;7.93;;;4.70;;
65558;SDS011;52203;51.998;5.140;2022-07-19T01:32:56;9.30;;;5.03;;
65558;SDS011;52203;51.998;5.140;2022-07-19T01:35:22;6.60;;;4.70;;
65558;SDS011;52203;51.998;5.140;2022-07-19T01:37:48;8.65;;;4.63;;
65558;SDS011;52203;51.998;5.140;2022-07-19T01:40:15;10.50;;;6.00;;
65558;SDS011;52203;51.998;5.140;2022-07-19T01:42:41;8.48;;;5.43;;
65558;SDS011;52203;51.998;5.140;2022-07-19T01:45:08;8.25;;;5.70;;
65558;SDS011;52203;51.998;5.140;2022-07-19T01:47:35;7.55;;;4.80;;
65558;SDS011;52203;51.998;5.140;2022-07-19T01:50:02;10.63;;;5.57;;
65558;SDS011;52203;51.998;5.140;2022-07-19T01:52:28;8.40;;;5.43;;
65558;SDS011;52203;51.998;5.140;2022-07-19T01:54:54;7.05;;;4.80;;
65558;SDS011;52203;51.998;5.140;2022-07-19T01:57:19;6.95;;;4.13;;
65558;SDS011;52203;51.998;5.140;2022-07-19T01:59:45;7.97;;;4.95;;
65558;SDS011;52203;51.998;5.140;2022-07-19T02:02:10;9.38;;;5.13;;
65558;SDS011;52203;51.998;5.140;2022-07-19T02:04:36;6.22;;;4.72;;
65558;SDS011;52203;51.998;5.140;2022-07-19T02:07:01;10.60;;;5.63;;
65558;SDS011;52203;51.998;5.140;2022-07-19T02:09:27;7.78;;;5.00;;
65558;SDS011;52203;51.998;5.140;2022-07-19T02:11:52;8.38;;;5.00;;
65558;SDS011;52203;51.998;5.140;2022-07-19T02:14:18;7.80;;;5.30;;
65558;SDS011;52203;51.998;5.140;2022-07-19T02:16:44;9.98;;;6.15;;
65558;SDS011;52203;51.998;5.140;2022-07-19T02:19:09;12.60;;;6.60;;
65558;SDS011;52203;51.998;5.140;2022-07-19T02:21:36;10.15;;;5.63;;
65558;SDS011;52203;51.998;5.140;2022-07-19T02:24:03;8.38;;;5.82;;
65558;SDS011;52203;51.998;5.140;2022-07-19T02:26:31;8.77;;;6.13;;
65558;SDS011;52203;51.998;5.140;2022-07-19T02:28:57;11.57;;;6.57;;
65558;SDS011;52203;51.998;5.140;2022-07-19T02:31:22;11.50;;;6.80;;
65558;SDS011;52203;51.998;5.140;2022-07-19T02:33:48;15.30;;;7.60;;
65558;SDS011;52203;51.998;5.140;2022-07-19T02:36:14;11.13;;;6.97;;
65558;SDS011;52203;51.998;5.140;2022-07-19T02:38:39;12.60;;;7.13;;
65558;SDS011;52203;51.998;5.140;2022-07-19T02:41:05;10.07;;;7.03;;
65558;SDS011;52203;51.998;5.140;2022-07-19T02:43:30;9.35;;;6.85;;
65558;SDS011;52203;51.998;5.140;2022-07-19T02:45:56;13.05;;;7.07;;
65558;SDS011;52203;51.998;5.140;2022-07-19T02:48:22;8.75;;;6.10;;
65558;SDS011;52203;51.998;5.140;2022-07-19T02:50:47;8.00;;;5.40;;
65558;SDS011;52203;51.998;5.140;2022-07-19T02:53:13;12.27;;;6.53;;
65558;SDS011;52203;51.998;5.140;2022-07-19T02:55:39;10.85;;;7.40;;
65558;SDS011;52203;51.998;5.140;2022-07-19T02:58:05;11.48;;;6.72;;
65558;SDS011;52203;51.998;5.140;2022-07-19T03:00:31;11.48;;;7.80;;
65558;SDS011;52203;51.998;5.140;2022-07-19T03:02:56;15.05;;;7.78;;
65558;SDS011;52203;51.998;5.140;2022-07-19T03:05:41;11.15;;;7.47;;
65558;SDS011;52203;51.998;5.140;2022-07-19T03:08:07;11.60;;;7.32;;
65558;SDS011;52203;51.998;5.140;2022-07-19T03:10:32;12.68;;;7.35;;
65558;SDS011;52203;51.998;5.140;2022-07-19T03:12:58;13.15;;;7.90;;
65558;SDS011;52203;51.998;5.140;2022-07-19T03:15:23;13.30;;;8.20;;
65558;SDS011;52203;51.998;5.140;2022-07-19T03:17:49;11.15;;;7.18;;
65558;SDS011;52203;51.998;5.140;2022-07-19T03:20:14;12.70;;;7.70;;
65558;SDS011;52203;51.998;5.140;2022-07-19T03:22:41;11.70;;;7.40;;
65558;SDS011;52203;51.998;5.140;2022-07-19T03:25:07;9.38;;;6.28;;
65558;SDS011;52203;51.998;5.140;2022-07-19T03:27:33;9.98;;;6.78;;
65558;SDS011;52203;51.998;5.140;2022-07-19T03:29:59;9.88;;;7.68;;
65558;SDS011;52203;51.998;5.140;2022-07-19T03:32:25;11.73;;;8.50;;
65558;SDS011;52203;51.998;5.140;2022-07-19T03:34:50;10.38;;;6.95;;
65558;SDS011;52203;51.998;5.140;2022-07-19T03:37:16;11.63;;;7.97;;
65558;SDS011;52203;51.998;5.140;2022-07-19T03:39:41;13.38;;;7.28;;
65558;SDS011;52203;51.998;5.140;2022-07-19T03:42:07;12.93;;;7.93;;
65558;SDS011;52203;51.998;5.140;2022-07-19T03:44:32;8.63;;;5.85;;
65558;SDS011;52203;51.998;5.140;2022-07-19T03:46:58;10.65;;;8.40;;
65558;SDS011;52203;51.998;5.140;2022-07-19T03:49:23;12.68;;;8.55;;
65558;SDS011;52203;51.998;5.140;2022-07-19T03:51:49;11.63;;;8.63;;
65558;SDS011;52203;51.998;5.140;2022-07-19T03:54:14;11.23;;;9.02;;
65558;SDS011;52203;51.998;5.140;2022-07-19T03:56:40;13.82;;;9.05;;
65558;SDS011;52203;51.998;5.140;2022-07-19T03:59:05;13.77;;;9.73;;
65558;SDS011;52203;51.998;5.140;2022-07-19T04:01:31;14.73;;;9.40;;
65558;SDS011;52203;51.998;5.140;2022-07-19T04:03:56;11.60;;;8.35;;
65558;SDS011;52203;51.998;5.140;2022-07-19T04:06:22;15.70;;;9.40;;
65558;SDS011;52203;51.998;5.140;2022-07-19T04:08:47;11.68;;;8.65;;
65558;SDS011;52203;51.998;5.140;2022-07-19T04:11:13;11.05;;;8.95;;
65558;SDS011;52203;51.998;5.140;2022-07-19T04:13:38;12.70;;;8.30;;
65558;SDS011;52203;51.998;5.140;2022-07-19T04:16:04;10.95;;;8.73;;
65558;SDS011;52203;51.998;5.140;2022-07-19T04:18:30;13.13;;;8.48;;
65558;SDS011;52203;51.998;5.140;2022-07-19T04:20:55;13.05;;;8.95;;
65558;SDS011;52203;51.998;5.140;2022-07-19T04:23:22;12.60;;;8.70;;
65558;SDS011;52203;51.998;5.140;2022-07-19T04:25:47;10.68;;;7.35;;
65558;SDS011;52203;51.998;5.140;2022-07-19T04:28:13;10.68;;;7.65;;
65558;SDS011;52203;51.998;5.140;2022-07-19T04:30:38;12.52;;;8.32;;
65558;SDS011;52203;51.998;5.140;2022-07-19T04:33:04;10.63;;;8.57;;
65558;SDS011;52203;51.998;5.140;2022-07-19T04:35:29;11.80;;;8.68;;
65558;SDS011;52203;51.998;5.140;2022-07-19T04:37:55;14.20;;;8.23;;
65558;SDS011;52203;51.998;5.140;2022-07-19T04:40:20;9.93;;;7.85;;
65558;SDS011;52203;51.998;5.140;2022-07-19T04:42:46;13.70;;;8.63;;
65558;SDS011;52203;51.998;5.140;2022-07-19T04:45:11;12.05;;;8.40;;
65558;SDS011;52203;51.998;5.140;2022-07-19T04:47:37;12.27;;;8.50;;
65558;SDS011;52203;51.998;5.140;2022-07-19T04:50:02;11.70;;;7.53;;
65558;SDS011;52203;51.998;5.140;2022-07-19T04:52:28;12.70;;;9.50;;
65558;SDS011;52203;51.998;5.140;2022-07-19T04:54:54;11.95;;;8.27;;
65558;SDS011;52203;51.998;5.140;2022-07-19T04:57:19;12.43;;;8.35;;
65558;SDS011;52203;51.998;5.140;2022-07-19T04:59:45;8.52;;;5.78;;
65558;SDS011;52203;51.998;5.140;2022-07-19T05:02:10;9.60;;;7.03;;
65558;SDS011;52203;51.998;5.140;2022-07-19T05:04:36;10.95;;;8.00;;
65558;SDS011;52203;51.998;5.140;2022-07-19T05:07:01;9.23;;;6.93;;
65558;SDS011;52203;51.998;5.140;2022-07-19T05:09:27;14.65;;;7.60;;
65558;SDS011;52203;51.998;5.140;2022-07-19T05:11:54;7.80;;;5.95;;
65558;SDS011;52203;51.998;5.140;2022-07-19T05:14:20;7.95;;;4.78;;
65558;SDS011;52203;51.998;5.140;2022-07-19T05:16:46;9.50;;;6.28;;
65558;SDS011;52203;51.998;5.140;2022-07-19T05:19:14;7.20;;;5.25;;
65558;SDS011;52203;51.998;5.140;2022-07-19T05:21:41;8.00;;;5.53;;
65558;SDS011;52203;51.998;5.140;2022-07-19T05:24:06;10.43;;;7.22;;
65558;SDS011;52203;51.998;5.140;2022-07-19T05:26:32;9.95;;;6.63;;
65558;SDS011;52203;51.998;5.140;2022-07-19T05:28:58;11.07;;;7.20;;
65558;SDS011;52203;51.998;5.140;2022-07-19T05:31:24;9.30;;;6.78;;
65558;SDS011;52203;51.998;5.140;2022-07-19T05:33:50;8.82;;;5.65;;
65558;SDS011;52203;51.998;5.140;2022-07-19T05:36:16;10.85;;;7.25;;
65558;SDS011;52203;51.998;5.140;2022-07-19T05:38:41;7.85;;;5.15;;
65558;SDS011;52203;51.998;5.140;2022-07-19T05:41:07;8.27;;;5.85;;
65558;SDS011;52203;51.998;5.140;2022-07-19T05:43:35;12.18;;;7.68;;
65558;SDS011;52203;51.998;5.140;2022-07-19T05:46:02;12.00;;;7.03;;
65558;SDS011;52203;51.998;5.140;2022-07-19T05:48:28;10.95;;;6.57;;
65558;SDS011;52203;51.998;5.140;2022-07-19T05:50:54;10.75;;;6.03;;
65558;SDS011;52203;51.998;5.140;2022-07-19T05:53:20;11.52;;;6.25;;
65558;SDS011;52203;51.998;5.140;2022-07-19T05:55:46;10.02;;;6.45;;
65558;SDS011;52203;51.998;5.140;2022-07-19T05:58:12;9.75;;;5.45;;
65558;SDS011;52203;51.998;5.140;2022-07-19T06:00:38;10.27;;;6.68;;
65558;SDS011;52203;51.998;5.140;2022-07-19T06:03:23;7.65;;;5.57;;
65558;SDS011;52203;51.998;5.140;2022-07-19T06:05:49;7.70;;;5.47;;
65558;SDS011;52203;51.998;5.140;2022-07-19T06:08:14;9.82;;;5.93;;
65558;SDS011;52203;51.998;5.140;2022-07-19T06:10:40;7.75;;;5.80;;
65558;SDS011;52203;51.998;5.140;2022-07-19T06:13:05;7.25;;;4.97;;
65558;SDS011;52203;51.998;5.140;2022-07-19T06:15:31;8.50;;;5.07;;
65558;SDS011;52203;51.998;5.140;2022-07-19T06:17:56;7.88;;;5.30;;
65558;SDS011;52203;51.998;5.140;2022-07-19T06:20:22;7.82;;;5.85;;
65558;SDS011;52203;51.998;5.140;2022-07-19T06:22:47;9.85;;;5.82;;
65558;SDS011;52203;51.998;5.140;2022-07-19T06:25:13;8.05;;;5.50;;
65558;SDS011;52203;51.998;5.140;2022-07-19T06:27:38;7.53;;;4.97;;
65558;SDS011;52203;51.998;5.140;2022-07-19T06:30:04;8.43;;;5.38;;
65558;SDS011;52203;51.998;5.140;2022-07-19T06:32:29;9.63;;;5.78;;
65558;SDS011;52203;51.998;5.140;2022-07-19T06:34:55;12.02;;;7.07;;
65558;SDS011;52203;51.998;5.140;2022-07-19T06:37:20;6.07;;;4.65;;
65558;SDS011;52203;51.998;5.140;2022-07-19T06:39:46;7.38;;;4.93;;
65558;SDS011;52203;51.998;5.140;2022-07-19T06:42:11;10.15;;;6.53;;
65558;SDS011;52203;51.998;5.140;2022-07-19T06:44:37;10.73;;;6.72;;
65558;SDS011;52203;51.998;5.140;2022-07-19T06:47:02;9.90;;;6.28;;
65558;SDS011;52203;51.998;5.140;2022-07-19T06:49:28;6.53;;;4.90;;
65558;SDS011;52203;51.998;5.140;2022-07-19T06:51:53;10.48;;;5.50;;
65558;SDS011;52203;51.998;5.140;2022-07-19T06:54:19;12.15;;;7.15;;
65558;SDS011;52203;51.998;5.140;2022-07-19T06:56:44;8.70;;;5.40;;
65558;SDS011;52203;51.998;5.140;2022-07-19T06:59:10;7.75;;;4.85;;
65558;SDS011;52203;51.998;5.140;2022-07-19T07:01:35;10.00;;;6.00;;
65558;SDS011;52203;51.998;5.140;2022-07-19T07:04:01;11.85;;;5.43;;
65558;SDS011;52203;51.998;5.140;2022-07-19T07:06:26;11.07;;;5.57;;
65558;SDS011;52203;51.998;5.140;2022-07-19T07:08:52;10.40;;;5.10;;
65558;SDS011;52203;51.998;5.140;2022-07-19T07:11:17;7.47;;;5.13;;
65558;SDS011;52203;51.998;5.140;2022-07-19T07:13:43;9.88;;;5.78;;
65558;SDS011;52203;51.998;5.140;2022-07-19T07:16:08;9.05;;;5.30;;
65558;SDS011;52203;51.998;5.140;2022-07-19T07:18:34;9.00;;;5.35;;
65558;SDS011;52203;51.998;5.140;2022-07-19T07:20:59;8.60;;;4.80;;
65558;SDS011;52203;51.998;5.140;2022-07-19T07:23:25;7.97;;;4.88;;
65558;SDS011;52203;51.998;5.140;2022-07-19T07:25:50;9.25;;;4.82;;
65558;SDS011;52203;51.998;5.140;2022-07-19T07:28:15;7.88;;;4.47;;
65558;SDS011;52203;51.998;5.140;2022-07-19T07:30:41;7.30;;;4.80;;
65558;SDS011;52203;51.998;5.140;2022-07-19T07:33:06;8.45;;;4.13;;
65558;SDS011;52203;51.998;5.140;2022-07-19T07:35:32;7.03;;;4.53;;
65558;SDS011;52203;51.998;5.140;2022-07-19T07:37:57;7.85;;;3.88;;
65558;SDS011;52203;51.998;5.140;2022-07-19T07:40:23;7.35;;;4.20;;
65558;SDS011;52203;51.998;5.140;2022-07-19T07:42:48;6.00;;;4.13;;
65558;SDS011;52203;51.998;5.140;2022-07-19T07:45:14;7.47;;;4.30;;
65558;SDS011;52203;51.998;5.140;2022-07-19T07:47:39;5.95;;;4.30;;
65558;SDS011;52203;51.998;5.140;2022-07-19T07:50:05;5.53;;;4.20;;
65558;SDS011;52203;51.998;5.140;2022-07-19T07:52:32;9.70;;;4.55;;
65558;SDS011;52203;51.998;5.140;2022-07-19T07:54:58;8.45;;;4.68;;
65558;SDS011;52203;51.998;5.140;2022-07-19T07:57:24;6.55;;;4.05;;
65558;SDS011;52203;51.998;5.140;2022-07-19T07:59:49;7.22;;;4.40;;
65558;SDS011;52203;51.998;5.140;2022-07-19T08:02:15;6.43;;;4.00;;
65558;SDS011;52203;51.998;5.140;2022-07-19T08:04:40;7.22;;;3.83;;
65558;SDS011;52203;51.998;5.140;2022-07-19T08:07:06;6.65;;;4.15;;
65558;SDS011;52203;51.998;5.140;2022-07-19T08:09:31;10.90;;;4.20;;
65558;SDS011;52203;51.998;5.140;2022-07-19T08:11:57;7.30;;;3.85;;
65558;SDS011;52203;51.998;5.140;2022-07-19T08:14:22;6.85;;;3.95;;
65558;SDS011;52203;51.998;5.140;2022-07-19T08:16:48;7.60;;;3.75;;
65558;SDS011;52203;51.998;5.140;2022-07-19T08:19:13;6.25;;;4.03;;
65558;SDS011;52203;51.998;5.140;2022-07-19T08:21:39;6.88;;;4.20;;
65558;SDS011;52203;51.998;5.140;2022-07-19T08:24:04;5.57;;;3.40;;
65558;SDS011;52203;51.998;5.140;2022-07-19T08:26:30;5.55;;;3.97;;
65558;SDS011;52203;51.998;5.140;2022-07-19T08:28:56;10.23;;;4.18;;
65558;SDS011;52203;51.998;5.140;2022-07-19T08:31:22;6.03;;;3.50;;
65558;SDS011;52203;51.998;5.140;2022-07-19T08:33:47;4.57;;;3.30;;
65558;SDS011;52203;51.998;5.140;2022-07-19T08:36:13;7.32;;;4.00;;
65558;SDS011;52203;51.998;5.140;2022-07-19T08:38:39;6.70;;;3.10;;
65558;SDS011;52203;51.998;5.140;2022-07-19T08:41:05;6.65;;;3.60;;
65558;SDS011;52203;51.998;5.140;2022-07-19T08:43:31;5.60;;;3.45;;
65558;SDS011;52203;51.998;5.140;2022-07-19T08:45:58;6.60;;;4.18;;
65558;SDS011;52203;51.998;5.140;2022-07-19T08:48:26;5.13;;;3.60;;
65558;SDS011;52203;51.998;5.140;2022-07-19T08:50:54;5.15;;;3.28;;
65558;SDS011;52203;51.998;5.140;2022-07-19T08:53:21;6.88;;;3.65;;
65558;SDS011;52203;51.998;5.140;2022-07-19T08:55:46;5.97;;;3.50;;
65558;SDS011;52203;51.998;5.140;2022-07-19T08:58:13;6.57;;;3.63;;
65558;SDS011;52203;51.998;5.140;2022-07-19T09:00:38;5.80;;;3.30;;
65558;SDS011;52203;51.998;5.140;2022-07-19T09:03:05;4.82;;;3.20;;
65558;SDS011;52203;51.998;5.140;2022-07-19T09:05:31;6.18;;;3.00;;
65558;SDS011;52203;51.998;5.140;2022-07-19T09:08:02;6.75;;;3.53;;
65558;SDS011;52203;51.998;5.140;2022-07-19T09:10:32;5.00;;;3.17;;
65558;SDS011;52203;51.998;5.140;2022-07-19T09:15:46;5.75;;;2.80;;
65558;SDS011;52203;51.998;5.140;2022-07-19T09:18:25;4.45;;;2.75;;
65558;SDS011;52203;51.998;5.140;2022-07-19T09:20:53;5.72;;;3.30;;
65558;SDS011;52203;51.998;5.140;2022-07-19T09:23:23;5.03;;;2.85;;
65558;SDS011;52203;51.998;5.140;2022-07-19T09:25:50;5.57;;;2.80;;
65558;SDS011;52203;51.998;5.140;2022-07-19T09:28:17;4.78;;;2.80;;
65558;SDS011;52203;51.998;5.140;2022-07-19T09:30:45;7.25;;;3.17;;
65558;SDS011;52203;51.998;5.140;2022-07-19T09:33:15;6.15;;;2.83;;
65558;SDS011;52203;51.998;5.140;2022-07-19T09:35:46;4.97;;;2.97;;
65558;SDS011;52203;51.998;5.140;2022-07-19T09:38:18;5.57;;;3.03;;
65558;SDS011;52203;51.998;5.140;2022-07-19T09:40:44;4.25;;;2.55;;
65558;SDS011;52203;51.998;5.140;2022-07-19T09:43:10;5.85;;;3.00;;
65558;SDS011;52203;51.998;5.140;2022-07-19T09:45:35;10.30;;;2.67;;
65558;SDS011;52203;51.998;5.140;2022-07-19T09:48:01;3.45;;;2.58;;
65558;SDS011;52203;51.998;5.140;2022-07-19T09:50:28;5.15;;;2.92;;
65558;SDS011;52203;51.998;5.140;2022-07-19T09:52:55;4.78;;;2.88;;
65558;SDS011;52203;51.998;5.140;2022-07-19T09:55:23;4.28;;;2.72;;
65558;SDS011;52203;51.998;5.140;2022-07-19T09:57:49;6.00;;;2.60;;
65558;SDS011;52203;51.998;5.140;2022-07-19T10:00:17;4.75;;;2.60;;
65558;SDS011;52203;51.998;5.140;2022-07-19T10:02:46;4.00;;;2.58;;
65558;SDS011;52203;51.998;5.140;2022-07-19T10:05:14;5.53;;;2.55;;
65558;SDS011;52203;51.998;5.140;2022-07-19T10:07:40;4.85;;;2.70;;
65558;SDS011;52203;51.998;5.140;2022-07-19T10:10:07;5.07;;;2.80;;
65558;SDS011;52203;51.998;5.140;2022-07-19T10:12:38;5.30;;;3.20;;
65558;SDS011;52203;51.998;5.140;2022-07-19T10:15:04;7.18;;;2.90;;
65558;SDS011;52203;51.998;5.140;2022-07-19T10:17:36;6.65;;;2.38;;
65558;SDS011;52203;51.998;5.140;2022-07-19T10:20:05;6.55;;;2.72;;
65558;SDS011;52203;51.998;5.140;2022-07-19T10:22:32;5.20;;;2.78;;
65558;SDS011;52203;51.998;5.140;2022-07-19T10:32:30;5.90;;;2.70;;
65558;SDS011;52203;51.998;5.140;2022-07-19T10:37:53;5.38;;;2.53;;
65558;SDS011;52203;51.998;5.140;2022-07-19T10:40:36;3.33;;;2.67;;
65558;SDS011;52203;51.998;5.140;2022-07-19T10:43:13;4.43;;;2.50;;
65558;SDS011;52203;51.998;5.140;2022-07-19T10:48:35;4.10;;;2.22;;
65558;SDS011;52203;51.998;5.140;2022-07-19T10:51:33;3.65;;;2.33;;
65558;SDS011;52203;51.998;5.140;2022-07-19T10:54:00;4.18;;;2.17;;
65558;SDS011;52203;51.998;5.140;2022-07-19T10:56:33;4.82;;;2.40;;
65558;SDS011;52203;51.998;5.140;2022-07-19T10:59:02;3.60;;;2.10;;
65558;SDS011;52203;51.998;5.140;2022-07-19T11:01:29;4.47;;;2.20;;
65558;SDS011;52203;51.998;5.140;2022-07-19T11:04:21;4.78;;;2.08;;
65558;SDS011;52203;51.998;5.140;2022-07-19T11:06:46;6.55;;;2.85;;
65558;SDS011;52203;51.998;5.140;2022-07-19T11:09:11;4.40;;;2.60;;
65558;SDS011;52203;51.998;5.140;2022-07-19T11:11:37;5.97;;;2.50;;
65558;SDS011;52203;51.998;5.140;2022-07-19T11:14:03;5.22;;;2.45;;
65558;SDS011;52203;51.998;5.140;2022-07-19T11:16:29;4.75;;;2.08;;
65558;SDS011;52203;51.998;5.140;2022-07-19T11:19:04;4.75;;;2.40;;
65558;SDS011;52203;51.998;5.140;2022-07-19T11:21:32;3.85;;;2.13;;
65558;SDS011;52203;51.998;5.140;2022-07-19T11:24:00;5.63;;;2.40;;
65558;SDS011;52203;51.998;5.140;2022-07-19T11:26:26;4.00;;;2.55;;
65558;SDS011;52203;51.998;5.140;2022-07-19T11:29:00;4.90;;;2.38;;
65558;SDS011;52203;51.998;5.140;2022-07-19T11:31:25;7.15;;;2.30;;
65558;SDS011;52203;51.998;5.140;2022-07-19T11:33:52;4.80;;;2.35;;
65558;SDS011;52203;51.998;5.140;2022-07-19T11:36:18;2.85;;;2.00;;
65558;SDS011;52203;51.998;5.140;2022-07-19T11:41:21;2.88;;;2.05;;
65558;SDS011;52203;51.998;5.140;2022-07-19T11:43:58;3.30;;;2.13;;
65558;SDS011;52203;51.998;5.140;2022-07-19T11:46:30;4.38;;;2.08;;
65558;SDS011;52203;51.998;5.140;2022-07-19T11:49:01;3.83;;;1.83;;
65558;SDS011;52203;51.998;5.140;2022-07-19T11:51:28;4.20;;;1.85;;
65558;SDS011;52203;51.998;5.140;2022-07-19T11:53:56;4.30;;;2.00;;
65558;SDS011;52203;51.998;5.140;2022-07-19T11:56:26;6.93;;;1.80;;
65558;SDS011;52203;51.998;5.140;2022-07-19T11:58:54;4.65;;;2.03;;
65558;SDS011;52203;51.998;5.140;2022-07-19T12:01:25;4.45;;;2.00;;
65558;SDS011;52203;51.998;5.140;2022-07-19T12:03:56;3.88;;;2.10;;
65558;SDS011;52203;51.998;5.140;2022-07-19T12:09:05;3.85;;;2.08;;
65558;SDS011;52203;51.998;5.140;2022-07-19T12:11:39;3.95;;;1.92;;
65558;SDS011;52203;51.998;5.140;2022-07-19T12:14:16;5.63;;;2.10;;
65558;SDS011;52203;51.998;5.140;2022-07-19T12:19:42;3.55;;;2.10;;
65558;SDS011;52203;51.998;5.140;2022-07-19T12:24:55;3.35;;;1.90;;
65558;SDS011;52203;51.998;5.140;2022-07-19T12:27:21;4.00;;;2.30;;
65558;SDS011;52203;51.998;5.140;2022-07-19T12:29:52;3.90;;;2.50;;
65558;SDS011;52203;51.998;5.140;2022-07-19T12:32:39;4.65;;;2.78;;
65558;SDS011;52203;51.998;5.140;2022-07-19T12:35:11;4.97;;;2.53;;
65558;SDS011;52203;51.998;5.140;2022-07-19T12:37:43;4.00;;;2.20;;
65558;SDS011;52203;51.998;5.140;2022-07-19T12:40:14;3.47;;;2.20;;
65558;SDS011;52203;51.998;5.140;2022-07-19T12:42:54;4.18;;;2.30;;
65558;SDS011;52203;51.998;5.140;2022-07-19T12:45:31;4.43;;;2.22;;
65558;SDS011;52203;51.998;5.140;2022-07-19T12:48:09;4.38;;;2.38;;
65558;SDS011;52203;51.998;5.140;2022-07-19T12:50:40;2.80;;;1.90;;
65558;SDS011;52203;51.998;5.140;2022-07-19T12:53:08;3.42;;;1.95;;
65558;SDS011;52203;51.998;5.140;2022-07-19T12:55:38;4.35;;;1.90;;
65558;SDS011;52203;51.998;5.140;2022-07-19T12:58:05;3.08;;;2.10;;
65558;SDS011;52203;51.998;5.140;2022-07-19T13:00:32;2.67;;;2.10;;
65558;SDS011;52203;51.998;5.140;2022-07-19T13:02:59;4.38;;;2.03;;
65558;SDS011;52203;51.998;5.140;2022-07-19T13:05:26;5.20;;;2.25;;
65558;SDS011;52203;51.998;5.140;2022-07-19T13:07:52;3.83;;;1.95;;
65558;SDS011;52203;51.998;5.140;2022-07-19T13:10:18;4.32;;;2.13;;
65558;SDS011;52203;51.998;5.140;2022-07-19T13:12:44;3.38;;;1.98;;
65558;SDS011;52203;51.998;5.140;2022-07-19T13:15:11;3.10;;;2.00;;
65558;SDS011;52203;51.998;5.140;2022-07-19T13:17:38;5.00;;;2.28;;
65558;SDS011;52203;51.998;5.140;2022-07-19T13:20:04;4.30;;;2.00;;
65558;SDS011;52203;51.998;5.140;2022-07-19T13:22:33;2.78;;;1.83;;
65558;SDS011;52203;51.998;5.140;2022-07-19T13:24:59;2.92;;;2.22;;
65558;SDS011;52203;51.998;5.140;2022-07-19T13:27:25;3.85;;;2.28;;
65558;SDS011;52203;51.998;5.140;2022-07-19T13:29:50;4.45;;;2.53;;
65558;SDS011;52203;51.998;5.140;2022-07-19T13:32:16;4.95;;;2.45;;
65558;SDS011;52203;51.998;5.140;2022-07-19T13:34:42;4.88;;;2.67;;
65558;SDS011;52203;51.998;5.140;2022-07-19T13:37:07;4.13;;;2.20;;
65558;SDS011;52203;51.998;5.140;2022-07-19T13:39:33;6.38;;;2.55;;
65558;SDS011;52203;51.998;5.140;2022-07-19T13:41:59;4.40;;;2.20;;
65558;SDS011;52203;51.998;5.140;2022-07-19T13:44:24;4.18;;;2.40;;
65558;SDS011;52203;51.998;5.140;2022-07-19T13:46:50;5.32;;;2.42;;
65558;SDS011;52203;51.998;5.140;2022-07-19T13:49:16;6.97;;;2.45;;
65558;SDS011;52203;51.998;5.140;2022-07-19T13:51:41;3.58;;;2.28;;
65558;SDS011;52203;51.998;5.140;2022-07-19T13:54:07;4.78;;;2.15;;
65558;SDS011;52203;51.998;5.140;2022-07-19T13:56:33;4.95;;;2.40;;
65558;SDS011;52203;51.998;5.140;2022-07-19T13:58:58;4.38;;;2.45;;
65558;SDS011;52203;51.998;5.140;2022-07-19T14:01:25;5.05;;;2.20;;
65558;SDS011;52203;51.998;5.140;2022-07-19T14:03:51;6.85;;;2.53;;
65558;SDS011;52203;51.998;5.140;2022-07-19T14:06:16;3.40;;;2.13;;
65558;SDS011;52203;51.998;5.140;2022-07-19T14:08:42;4.97;;;2.25;;
65558;SDS011;52203;51.998;5.140;2022-07-19T14:11:07;3.60;;;1.77;;
65558;SDS011;52203;51.998;5.140;2022-07-19T14:13:33;4.85;;;2.13;;
65558;SDS011;52203;51.998;5.140;2022-07-19T14:16:02;3.17;;;1.70;;
65558;SDS011;52203;51.998;5.140;2022-07-19T14:18:28;4.88;;;2.58;;
65558;SDS011;52203;51.998;5.140;2022-07-19T14:20:54;5.75;;;1.98;;
65558;SDS011;52203;51.998;5.140;2022-07-19T14:23:20;4.53;;;1.88;;
65558;SDS011;52203;51.998;5.140;2022-07-19T14:25:46;6.00;;;2.00;;
65558;SDS011;52203;51.998;5.140;2022-07-19T14:28:12;3.38;;;2.03;;
65558;SDS011;52203;51.998;5.140;2022-07-19T14:30:37;4.63;;;1.90;;
65558;SDS011;52203;51.998;5.140;2022-07-19T14:33:03;3.90;;;1.42;;
65558;SDS011;52203;51.998;5.140;2022-07-19T14:35:29;5.45;;;1.75;;
65558;SDS011;52203;51.998;5.140;2022-07-19T14:37:54;4.20;;;1.95;;
65558;SDS011;52203;51.998;5.140;2022-07-19T14:40:20;3.83;;;1.90;;
65558;SDS011;52203;51.998;5.140;2022-07-19T14:42:46;4.53;;;2.00;;
65558;SDS011;52203;51.998;5.140;2022-07-19T14:45:11;4.00;;;1.95;;
65558;SDS011;52203;51.998;5.140;2022-07-19T14:47:37;3.60;;;1.90;;
65558;SDS011;52203;51.998;5.140;2022-07-19T14:50:04;2.72;;;1.83;;
65558;SDS011;52203;51.998;5.140;2022-07-19T14:52:31;4.55;;;2.00;;
65558;SDS011;52203;51.998;5.140;2022-07-19T14:54:57;3.58;;;1.80;;
65558;SDS011;52203;51.998;5.140;2022-07-19T14:57:23;3.47;;;1.88;;
65558;SDS011;52203;51.998;5.140;2022-07-19T14:59:48;5.13;;;2.28;;
65558;SDS011;52203;51.998;5.140;2022-07-19T15:02:15;3.90;;;1.90;;
65558;SDS011;52203;51.998;5.140;2022-07-19T15:04:40;5.53;;;2.10;;
65558;SDS011;52203;51.998;5.140;2022-07-19T15:07:06;3.80;;;1.85;;
65558;SDS011;52203;51.998;5.140;2022-07-19T15:09:32;5.65;;;2.38;;